sensor_id;sensor_type;location;lat;lon;timestamp;pressure;altitude;pressure_sealevel;temperature;humidity
55410;BME280;41279;43.546;16.426;2023-04-04T00:02:02;52490.41;;;-146.77;75.64
55410;BME280;41279;43.546;16.426;2023-04-04T00:04:28;52472.38;;;-146.77;75.24
55410;BME280;41279;43.546;16.426;2023-04-04T00:06:53;52482.38;;;-146.77;75.41
55410;BME280;41279;43.546;16.426;2023-04-04T00:09:19;52494.41;;;-146.77;75.44
55410;BME280;41279;43.546;16.426;2023-04-04T00:11:45;52486.41;;;-146.77;75.33
55410;BME280;41279;43.546;16.426;2023-04-04T00:14:11;52520.44;;;-146.77;74.76
55410;BME280;41279;43.546;16.426;2023-04-04T00:16:37;52482.38;;;-146.77;75.61
55410;BME280;41279;43.546;16.426;2023-04-04T00:19:08;52488.41;;;-146.77;75.80
55410;BME280;41279;43.546;16.426;2023-04-04T00:21:38;52494.41;;;-146.77;74.53
55410;BME280;41279;43.546;16.426;2023-04-04T00:24:12;52494.41;;;-146.77;74.82
55410;BME280;41279;43.546;16.426;2023-04-04T00:26:38;52474.38;;;-146.77;74.10
55410;BME280;41279;43.546;16.426;2023-04-04T00:29:03;52494.41;;;-146.77;73.56
55410;BME280;41279;43.546;16.426;2023-04-04T00:31:29;52482.38;;;-146.77;74.23
55410;BME280;41279;43.546;16.426;2023-04-04T00:34:00;52484.38;;;-146.77;73.87
55410;BME280;41279;43.546;16.426;2023-04-04T00:36:32;52506.41;;;-146.77;73.31
55410;BME280;41279;43.546;16.426;2023-04-04T00:38:58;52462.38;;;-146.77;73.20
55410;BME280;41279;43.546;16.426;2023-04-04T00:41:24;52498.41;;;-146.77;73.47
55410;BME280;41279;43.546;16.426;2023-04-04T00:43:49;52492.41;;;-146.77;72.95
55410;BME280;41279;43.546;16.426;2023-04-04T00:46:15;52494.41;;;-146.77;72.55
55410;BME280;41279;43.546;16.426;2023-04-04T00:48:43;52502.41;;;-146.77;72.35
55410;BME280;41279;43.546;16.426;2023-04-04T00:51:08;52480.38;;;-146.77;72.25
55410;BME280;41279;43.546;16.426;2023-04-04T00:53:34;52524.44;;;-146.77;72.17
55410;BME280;41279;43.546;16.426;2023-04-04T00:56:00;52504.41;;;-146.77;71.70
55410;BME280;41279;43.546;16.426;2023-04-04T00:58:26;52482.38;;;-146.77;70.98
55410;BME280;41279;43.546;16.426;2023-04-04T01:00:51;52494.41;;;-146.77;70.85
55410;BME280;41279;43.546;16.426;2023-04-04T01:03:17;52470.38;;;-146.77;70.53
55410;BME280;41279;43.546;16.426;2023-04-04T01:05:43;52478.38;;;-146.77;70.33
55410;BME280;41279;43.546;16.426;2023-04-04T01:08:09;52492.41;;;-146.77;70.01
55410;BME280;41279;43.546;16.426;2023-04-04T01:10:35;52488.41;;;-146.77;70.39
55410;BME280;41279;43.546;16.426;2023-04-04T01:13:01;52470.38;;;-146.77;70.30
55410;BME280;41279;43.546;16.426;2023-04-04T01:15:26;52502.41;;;-146.77;70.62
55410;BME280;41279;43.546;16.426;2023-04-04T01:17:55;52510.41;;;-146.77;70.51
55410;BME280;41279;43.546;16.426;2023-04-04T01:20:24;52462.38;;;-146.77;70.14
55410;BME280;41279;43.546;16.426;2023-04-04T01:22:52;52462.38;;;-146.77;70.19
55410;BME280;41279;43.546;16.426;2023-04-04T01:25:26;52486.41;;;-146.77;70.10
55410;BME280;41279;43.546;16.426;2023-04-04T01:27:54;52472.38;;;-146.77;70.54
55410;BME280;41279;43.546;16.426;2023-04-04T01:30:20;52480.38;;;-146.77;70.64
55410;BME280;41279;43.546;16.426;2023-04-04T01:32:52;52496.41;;;-146.77;70.29
55410;BME280;41279;43.546;16.426;2023-04-04T01:35:24;52486.41;;;-146.77;70.37
55410;BME280;41279;43.546;16.426;2023-04-04T01:38:12;52468.38;;;-146.77;70.21
55410;BME280;41279;43.546;16.426;2023-04-04T01:40:40;52470.38;;;-146.77;70.16
55410;BME280;41279;43.546;16.426;2023-04-04T01:43:09;52504.41;;;-146.77;69.92
55410;BME280;41279;43.546;16.426;2023-04-04T01:45:34;52478.38;;;-146.77;70.23
55410;BME280;41279;43.546;16.426;2023-04-04T01:48:00;52502.41;;;-146.77;70.64
55410;BME280;41279;43.546;16.426;2023-04-04T01:50:25;52494.41;;;-146.77;70.82
55410;BME280;41279;43.546;16.426;2023-04-04T01:52:51;52470.38;;;-146.77;70.76
55410;BME280;41279;43.546;16.426;2023-04-04T01:55:17;52458.38;;;-146.77;71.02
55410;BME280;41279;43.546;16.426;2023-04-04T01:57:42;52492.41;;;-146.77;71.57
55410;BME280;41279;43.546;16.426;2023-04-04T02:00:08;52480.38;;;-146.77;71.41
55410;BME280;41279;43.546;16.426;2023-04-04T02:02:35;52478.38;;;-146.77;71.57
55410;BME280;41279;43.546;16.426;2023-04-04T02:05:00;52496.41;;;-146.77;71.52
55410;BME280;41279;43.546;16.426;2023-04-04T02:07:26;52496.41;;;-146.77;71.80
55410;BME280;41279;43.546;16.426;2023-04-04T02:09:52;52478.38;;;-146.77;72.32
55410;BME280;41279;43.546;16.426;2023-04-04T02:12:18;52488.41;;;-146.77;72.14
55410;BME280;41279;43.546;16.426;2023-04-04T02:14:43;52502.41;;;-146.77;71.74
55410;BME280;41279;43.546;16.426;2023-04-04T02:17:09;52486.41;;;-146.77;71.79
55410;BME280;41279;43.546;16.426;2023-04-04T02:19:35;52484.38;;;-146.77;71.44
55410;BME280;41279;43.546;16.426;2023-04-04T02:22:00;52498.41;;;-146.77;71.38
55410;BME280;41279;43.546;16.426;2023-04-04T02:24:25;52498.41;;;-146.77;70.87
55410;BME280;41279;43.546;16.426;2023-04-04T02:26:51;52478.38;;;-146.77;70.54
55410;BME280;41279;43.546;16.426;2023-04-04T02:29:16;52486.41;;;-146.77;70.24
55410;BME280;41279;43.546;16.426;2023-04-04T02:31:42;52494.41;;;-146.77;69.59
55410;BME280;41279;43.546;16.426;2023-04-04T02:34:07;52492.41;;;-146.77;68.93
55410;BME280;41279;43.546;16.426;2023-04-04T02:36:33;52510.41;;;-146.77;69.13
55410;BME280;41279;43.546;16.426;2023-04-04T02:38:58;52482.38;;;-146.77;68.81
55410;BME280;41279;43.546;16.426;2023-04-04T02:41:25;52476.38;;;-146.77;68.76
55410;BME280;41279;43.546;16.426;2023-04-04T02:43:50;52494.41;;;-146.77;68.73
55410;BME280;41279;43.546;16.426;2023-04-04T02:46:16;52498.41;;;-146.77;68.26
55410;BME280;41279;43.546;16.426;2023-04-04T02:48:42;52480.38;;;-146.77;68.02
55410;BME280;41279;43.546;16.426;2023-04-04T02:51:08;52484.38;;;-146.77;67.71
55410;BME280;41279;43.546;16.426;2023-04-04T02:53:33;52496.41;;;-146.77;67.40
55410;BME280;41279;43.546;16.426;2023-04-04T02:56:01;52490.41;;;-146.77;67.25
55410;BME280;41279;43.546;16.426;2023-04-04T02:58:27;52490.41;;;-146.77;67.28
55410;BME280;41279;43.546;16.426;2023-04-04T03:00:53;52478.38;;;-146.77;67.02
55410;BME280;41279;43.546;16.426;2023-04-04T03:03:19;52472.38;;;-146.77;67.28
55410;BME280;41279;43.546;16.426;2023-04-04T03:05:45;52490.41;;;-146.77;66.93
55410;BME280;41279;43.546;16.426;2023-04-04T03:08:10;52468.38;;;-146.77;67.22
55410;BME280;41279;43.546;16.426;2023-04-04T03:10:35;52494.41;;;-146.77;67.23
55410;BME280;41279;43.546;16.426;2023-04-04T03:13:01;52480.38;;;-146.77;67.09
55410;BME280;41279;43.546;16.426;2023-04-04T03:15:26;52508.41;;;-146.77;67.09
55410;BME280;41279;43.546;16.426;2023-04-04T03:17:52;52474.38;;;-146.77;67.31
55410;BME280;41279;43.546;16.426;2023-04-04T03:20:18;52474.38;;;-146.77;67.44
55410;BME280;41279;43.546;16.426;2023-04-04T03:22:43;52494.41;;;-146.77;67.51
55410;BME280;41279;43.546;16.426;2023-04-04T03:25:08;52482.38;;;-146.77;67.21
55410;BME280;41279;43.546;16.426;2023-04-04T03:27:34;52458.38;;;-146.77;67.91
55410;BME280;41279;43.546;16.426;2023-04-04T03:30:00;52486.41;;;-146.77;68.18
55410;BME280;41279;43.546;16.426;2023-04-04T03:32:25;52496.41;;;-146.77;68.71
55410;BME280;41279;43.546;16.426;2023-04-04T03:34:51;52498.41;;;-146.77;69.18
55410;BME280;41279;43.546;16.426;2023-04-04T03:37:17;52464.38;;;-146.77;70.06
55410;BME280;41279;43.546;16.426;2023-04-04T03:39:43;52506.41;;;-146.77;70.52
55410;BME280;41279;43.546;16.426;2023-04-04T03:42:08;52488.41;;;-146.77;71.19
55410;BME280;41279;43.546;16.426;2023-04-04T03:44:34;52514.41;;;-146.77;71.68
55410;BME280;41279;43.546;16.426;2023-04-04T03:47:01;52466.38;;;-146.77;73.12
55410;BME280;41279;43.546;16.426;2023-04-04T03:49:27;52488.41;;;-146.77;73.79
55410;BME280;41279;43.546;16.426;2023-04-04T03:51:52;52484.38;;;-146.77;74.38
55410;BME280;41279;43.546;16.426;2023-04-04T03:54:18;52502.41;;;-146.77;75.39
55410;BME280;41279;43.546;16.426;2023-04-04T03:56:43;52496.41;;;-146.77;76.49
55410;BME280;41279;43.546;16.426;2023-04-04T03:59:09;52484.38;;;-146.77;76.31
55410;BME280;41279;43.546;16.426;2023-04-04T04:01:34;52488.41;;;-146.77;76.82
55410;BME280;41279;43.546;16.426;2023-04-04T04:04:00;52510.41;;;-146.77;75.44
55410;BME280;41279;43.546;16.426;2023-04-04T04:06:26;52478.38;;;-146.77;75.76
55410;BME280;41279;43.546;16.426;2023-04-04T04:08:51;52500.41;;;-146.77;75.91
55410;BME280;41279;43.546;16.426;2023-04-04T04:11:17;52498.41;;;-146.77;75.67
55410;BME280;41279;43.546;16.426;2023-04-04T04:13:42;52506.41;;;-146.77;76.74
55410;BME280;41279;43.546;16.426;2023-04-04T04:16:08;52476.38;;;-146.77;74.87
55410;BME280;41279;43.546;16.426;2023-04-04T04:18:34;52478.38;;;-146.77;75.17
55410;BME280;41279;43.546;16.426;2023-04-04T04:20:59;52492.41;;;-146.77;75.12
55410;BME280;41279;43.546;16.426;2023-04-04T04:23:27;52480.38;;;-146.77;75.28
55410;BME280;41279;43.546;16.426;2023-04-04T04:25:52;52478.38;;;-146.77;75.00
55410;BME280;41279;43.546;16.426;2023-04-04T04:28:17;52490.41;;;-146.77;75.36
55410;BME280;41279;43.546;16.426;2023-04-04T04:30:43;52498.41;;;-146.77;74.41
55410;BME280;41279;43.546;16.426;2023-04-04T04:33:09;52494.41;;;-146.77;75.31
55410;BME280;41279;43.546;16.426;2023-04-04T04:35:38;52474.38;;;-146.77;74.93
55410;BME280;41279;43.546;16.426;2023-04-04T04:38:04;52502.41;;;-146.77;75.20
55410;BME280;41279;43.546;16.426;2023-04-04T04:40:31;52478.38;;;-146.77;74.76
55410;BME280;41279;43.546;16.426;2023-04-04T04:42:56;52486.41;;;-146.77;74.98
55410;BME280;41279;43.546;16.426;2023-04-04T04:45:22;52484.38;;;-146.77;75.23
55410;BME280;41279;43.546;16.426;2023-04-04T04:47:47;52518.44;;;-146.77;74.45
55410;BME280;41279;43.546;16.426;2023-04-04T04:50:13;52482.38;;;-146.77;74.39
55410;BME280;41279;43.546;16.426;2023-04-04T04:52:38;52494.41;;;-146.77;74.63
55410;BME280;41279;43.546;16.426;2023-04-04T04:55:04;52490.41;;;-146.77;73.67
55410;BME280;41279;43.546;16.426;2023-04-04T04:57:30;52482.38;;;-146.77;73.65
55410;BME280;41279;43.546;16.426;2023-04-04T04:59:56;52490.41;;;-146.77;73.36
55410;BME280;41279;43.546;16.426;2023-04-04T05:02:21;52466.38;;;-146.77;73.81
55410;BME280;41279;43.546;16.426;2023-04-04T05:04:46;52480.38;;;-146.77;73.44
55410;BME280;41279;43.546;16.426;2023-04-04T05:07:12;52478.38;;;-146.77;73.58
55410;BME280;41279;43.546;16.426;2023-04-04T05:09:38;52464.38;;;-146.77;73.64
55410;BME280;41279;43.546;16.426;2023-04-04T05:12:04;52482.38;;;-146.77;73.79
55410;BME280;41279;43.546;16.426;2023-04-04T05:14:29;52482.38;;;-146.77;73.22
55410;BME280;41279;43.546;16.426;2023-04-04T05:16:55;52484.38;;;-146.77;73.03
55410;BME280;41279;43.546;16.426;2023-04-04T05:19:20;52482.38;;;-146.77;73.21
55410;BME280;41279;43.546;16.426;2023-04-04T05:21:46;52490.41;;;-146.77;72.85
55410;BME280;41279;43.546;16.426;2023-04-04T05:24:12;52488.41;;;-146.77;73.10
55410;BME280;41279;43.546;16.426;2023-04-04T05:26:37;52494.41;;;-146.77;72.85
55410;BME280;41279;43.546;16.426;2023-04-04T05:29:03;52522.44;;;-146.77;71.98
55410;BME280;41279;43.546;16.426;2023-04-04T05:31:28;52478.38;;;-146.77;71.25
55410;BME280;41279;43.546;16.426;2023-04-04T05:33:54;52484.38;;;-146.77;70.67
55410;BME280;41279;43.546;16.426;2023-04-04T05:36:20;52474.38;;;-146.77;71.70
55410;BME280;41279;43.546;16.426;2023-04-04T05:38:45;52478.38;;;-146.77;71.20
55410;BME280;41279;43.546;16.426;2023-04-04T05:41:11;52488.41;;;-146.77;71.37
55410;BME280;41279;43.546;16.426;2023-04-04T05:43:37;52494.41;;;-146.77;70.60
55410;BME280;41279;43.546;16.426;2023-04-04T05:46:02;52500.41;;;-146.77;70.42
55410;BME280;41279;43.546;16.426;2023-04-04T05:48:28;52498.41;;;-146.77;69.89
55410;BME280;41279;43.546;16.426;2023-04-04T05:50:53;52464.38;;;-146.77;70.04
55410;BME280;41279;43.546;16.426;2023-04-04T05:53:19;52502.41;;;-146.77;69.83
55410;BME280;41279;43.546;16.426;2023-04-04T05:55:45;52478.38;;;-146.77;69.07
55410;BME280;41279;43.546;16.426;2023-04-04T05:58:10;52494.41;;;-146.77;69.00
55410;BME280;41279;43.546;16.426;2023-04-04T06:00:36;52464.38;;;-146.77;68.78
55410;BME280;41279;43.546;16.426;2023-04-04T06:03:08;52500.41;;;-146.77;68.02
55410;BME280;41279;43.546;16.426;2023-04-04T06:05:34;52470.38;;;-146.77;67.86
55410;BME280;41279;43.546;16.426;2023-04-04T06:08:00;52502.41;;;-146.77;67.88
55410;BME280;41279;43.546;16.426;2023-04-04T06:10:25;52502.41;;;-146.77;68.02
55410;BME280;41279;43.546;16.426;2023-04-04T06:12:51;52486.41;;;-146.77;67.53
55410;BME280;41279;43.546;16.426;2023-04-04T06:15:17;52480.38;;;-146.77;68.21
55410;BME280;41279;43.546;16.426;2023-04-04T06:17:42;52490.41;;;-146.77;67.80
55410;BME280;41279;43.546;16.426;2023-04-04T06:20:14;52488.41;;;-146.77;67.09
55410;BME280;41279;43.546;16.426;2023-04-04T06:22:40;52488.41;;;-146.77;66.67
55410;BME280;41279;43.546;16.426;2023-04-04T06:25:06;52478.38;;;-146.77;65.66
55410;BME280;41279;43.546;16.426;2023-04-04T06:27:34;52472.38;;;-146.77;66.07
55410;BME280;41279;43.546;16.426;2023-04-04T06:29:59;52490.41;;;-146.77;66.14
55410;BME280;41279;43.546;16.426;2023-04-04T06:32:25;52480.38;;;-146.77;66.39
55410;BME280;41279;43.546;16.426;2023-04-04T06:34:52;52490.41;;;-146.77;65.37
55410;BME280;41279;43.546;16.426;2023-04-04T06:37:24;52490.41;;;-146.77;65.21
55410;BME280;41279;43.546;16.426;2023-04-04T06:39:49;52490.41;;;-146.77;65.36
55410;BME280;41279;43.546;16.426;2023-04-04T06:42:15;52496.41;;;-146.77;64.49
55410;BME280;41279;43.546;16.426;2023-04-04T06:44:41;52490.41;;;-146.77;64.21
55410;BME280;41279;43.546;16.426;2023-04-04T06:47:07;52476.38;;;-146.77;64.01
55410;BME280;41279;43.546;16.426;2023-04-04T06:49:32;52470.38;;;-146.77;63.96
55410;BME280;41279;43.546;16.426;2023-04-04T06:51:59;52516.41;;;-146.77;64.24
55410;BME280;41279;43.546;16.426;2023-04-04T06:54:25;52474.38;;;-146.77;64.15
55410;BME280;41279;43.546;16.426;2023-04-04T06:56:50;52456.38;;;-146.77;64.41
55410;BME280;41279;43.546;16.426;2023-04-04T06:59:17;52482.38;;;-146.77;64.16
55410;BME280;41279;43.546;16.426;2023-04-04T07:01:43;52468.38;;;-146.77;64.15
55410;BME280;41279;43.546;16.426;2023-04-04T07:04:08;52458.38;;;-146.77;63.85
55410;BME280;41279;43.546;16.426;2023-04-04T07:06:34;52490.41;;;-146.77;63.68
55410;BME280;41279;43.546;16.426;2023-04-04T07:09:00;52458.38;;;-146.77;63.30
55410;BME280;41279;43.546;16.426;2023-04-04T07:11:25;52472.38;;;-146.77;62.85
55410;BME280;41279;43.546;16.426;2023-04-04T07:13:51;52482.38;;;-146.77;62.61
55410;BME280;41279;43.546;16.426;2023-04-04T07:16:17;52474.38;;;-146.77;61.70
55410;BME280;41279;43.546;16.426;2023-04-04T07:18:42;52452.34;;;-146.77;62.11
55410;BME280;41279;43.546;16.426;2023-04-04T07:21:08;52474.38;;;-146.77;61.84
55410;BME280;41279;43.546;16.426;2023-04-04T07:23:34;52446.34;;;-146.77;61.97
55410;BME280;41279;43.546;16.426;2023-04-04T07:26:00;52450.34;;;-146.77;61.43
55410;BME280;41279;43.546;16.426;2023-04-04T07:28:25;52458.38;;;-146.77;61.28
55410;BME280;41279;43.546;16.426;2023-04-04T07:30:51;52488.41;;;-146.77;60.94
55410;BME280;41279;43.546;16.426;2023-04-04T07:33:16;52466.38;;;-146.77;60.68
55410;BME280;41279;43.546;16.426;2023-04-04T07:35:42;52472.38;;;-146.77;61.04
55410;BME280;41279;43.546;16.426;2023-04-04T07:38:07;52484.38;;;-146.77;60.51
55410;BME280;41279;43.546;16.426;2023-04-04T07:40:33;52484.38;;;-146.77;60.29
55410;BME280;41279;43.546;16.426;2023-04-04T07:42:59;52472.38;;;-146.77;60.31
55410;BME280;41279;43.546;16.426;2023-04-04T07:45:24;52458.38;;;-146.77;58.96
55410;BME280;41279;43.546;16.426;2023-04-04T07:47:50;52450.34;;;-146.77;58.03
55410;BME280;41279;43.546;16.426;2023-04-04T07:50:15;52470.38;;;-146.77;58.13
55410;BME280;41279;43.546;16.426;2023-04-04T07:52:41;52472.38;;;-146.77;58.12
55410;BME280;41279;43.546;16.426;2023-04-04T07:55:07;52472.38;;;-146.77;57.95
55410;BME280;41279;43.546;16.426;2023-04-04T07:57:37;52480.38;;;-146.77;57.94
55410;BME280;41279;43.546;16.426;2023-04-04T08:00:07;52472.38;;;-146.77;57.79
55410;BME280;41279;43.546;16.426;2023-04-04T08:02:36;52466.38;;;-146.77;58.41
55410;BME280;41279;43.546;16.426;2023-04-04T08:05:02;52466.38;;;-146.77;57.83
55410;BME280;41279;43.546;16.426;2023-04-04T08:07:27;52448.34;;;-146.77;56.86
55410;BME280;41279;43.546;16.426;2023-04-04T08:09:53;52446.34;;;-146.77;56.59
55410;BME280;41279;43.546;16.426;2023-04-04T08:12:19;52448.34;;;-146.77;56.52
55410;BME280;41279;43.546;16.426;2023-04-04T08:14:44;52472.38;;;-146.77;56.24
55410;BME280;41279;43.546;16.426;2023-04-04T08:17:09;52454.34;;;-146.77;56.15
55410;BME280;41279;43.546;16.426;2023-04-04T08:19:36;52442.34;;;-146.77;55.98
55410;BME280;41279;43.546;16.426;2023-04-04T08:22:01;52454.34;;;-146.77;55.59
55410;BME280;41279;43.546;16.426;2023-04-04T08:24:27;52458.38;;;-146.77;55.83
55410;BME280;41279;43.546;16.426;2023-04-04T08:26:53;52446.34;;;-146.77;55.29
55410;BME280;41279;43.546;16.426;2023-04-04T08:29:18;52446.34;;;-146.77;55.08
55410;BME280;41279;43.546;16.426;2023-04-04T08:31:44;52458.38;;;-146.77;54.69
55410;BME280;41279;43.546;16.426;2023-04-04T08:34:09;52444.34;;;-146.77;54.25
55410;BME280;41279;43.546;16.426;2023-04-04T08:36:35;52458.38;;;-146.77;54.37
55410;BME280;41279;43.546;16.426;2023-04-04T08:39:01;52458.38;;;-146.77;54.15
55410;BME280;41279;43.546;16.426;2023-04-04T08:41:28;52454.34;;;-146.77;54.02
55410;BME280;41279;43.546;16.426;2023-04-04T08:43:55;52466.38;;;-146.77;54.20
55410;BME280;41279;43.546;16.426;2023-04-04T08:46:22;52434.34;;;-146.77;54.20
55410;BME280;41279;43.546;16.426;2023-04-04T08:48:49;52456.38;;;-146.77;53.78
55410;BME280;41279;43.546;16.426;2023-04-04T08:51:19;52462.38;;;-146.77;53.82
55410;BME280;41279;43.546;16.426;2023-04-04T08:53:46;52444.34;;;-146.77;53.92
55410;BME280;41279;43.546;16.426;2023-04-04T08:56:12;52426.34;;;-146.77;54.27
55410;BME280;41279;43.546;16.426;2023-04-04T08:58:38;52422.31;;;-146.77;53.87
55410;BME280;41279;43.546;16.426;2023-04-04T09:01:04;52432.34;;;-146.77;53.75
55410;BME280;41279;43.546;16.426;2023-04-04T09:03:32;52450.34;;;-146.77;53.94
55410;BME280;41279;43.546;16.426;2023-04-04T09:06:00;52424.31;;;-146.77;53.97
55410;BME280;41279;43.546;16.426;2023-04-04T09:08:27;52442.34;;;-146.77;53.94
55410;BME280;41279;43.546;16.426;2023-04-04T09:10:53;52438.34;;;-146.77;54.22
55410;BME280;41279;43.546;16.426;2023-04-04T09:13:19;52446.34;;;-146.77;53.78
55410;BME280;41279;43.546;16.426;2023-04-04T09:15:47;52432.34;;;-146.77;53.11
55410;BME280;41279;43.546;16.426;2023-04-04T09:18:14;52446.34;;;-146.77;52.81
55410;BME280;41279;43.546;16.426;2023-04-04T09:20:44;52460.38;;;-146.77;53.26
55410;BME280;41279;43.546;16.426;2023-04-04T09:23:14;52440.34;;;-146.77;52.92
55410;BME280;41279;43.546;16.426;2023-04-04T09:25:53;52450.34;;;-146.77;52.74
55410;BME280;41279;43.546;16.426;2023-04-04T09:28:20;52432.34;;;-146.77;52.44
55410;BME280;41279;43.546;16.426;2023-04-04T09:30:50;52448.34;;;-146.77;52.10
55410;BME280;41279;43.546;16.426;2023-04-04T09:33:17;52428.34;;;-146.77;51.89
55410;BME280;41279;43.546;16.426;2023-04-04T09:35:44;52450.34;;;-146.77;52.17
55410;BME280;41279;43.546;16.426;2023-04-04T09:38:11;52430.34;;;-146.77;51.72
55410;BME280;41279;43.546;16.426;2023-04-04T09:40:40;52450.34;;;-146.77;51.65
55410;BME280;41279;43.546;16.426;2023-04-04T09:43:09;52444.34;;;-146.77;51.70
55410;BME280;41279;43.546;16.426;2023-04-04T09:45:39;52414.31;;;-146.77;51.41
55410;BME280;41279;43.546;16.426;2023-04-04T09:48:06;52438.34;;;-146.77;51.67
55410;BME280;41279;43.546;16.426;2023-04-04T09:50:33;52452.34;;;-146.77;51.42
55410;BME280;41279;43.546;16.426;2023-04-04T09:53:00;52488.41;;;-146.77;52.17
55410;BME280;41279;43.546;16.426;2023-04-04T09:55:33;52420.31;;;-146.77;51.83
55410;BME280;41279;43.546;16.426;2023-04-04T09:58:10;52422.31;;;-146.77;50.62
55410;BME280;41279;43.546;16.426;2023-04-04T10:00:39;52456.38;;;-146.77;51.18
55410;BME280;41279;43.546;16.426;2023-04-04T10:03:06;52442.34;;;-146.77;51.28
55410;BME280;41279;43.546;16.426;2023-04-04T10:05:32;52420.31;;;-146.77;51.25
55410;BME280;41279;43.546;16.426;2023-04-04T10:07:57;52446.34;;;-146.77;50.79
55410;BME280;41279;43.546;16.426;2023-04-04T10:10:24;52448.34;;;-146.77;50.81
55410;BME280;41279;43.546;16.426;2023-04-04T10:12:52;52454.34;;;-146.77;50.89
55410;BME280;41279;43.546;16.426;2023-04-04T10:15:21;52444.34;;;-146.77;50.60
55410;BME280;41279;43.546;16.426;2023-04-04T10:17:47;52446.34;;;-146.77;50.64
55410;BME280;41279;43.546;16.426;2023-04-04T10:20:14;52428.34;;;-146.77;50.87
55410;BME280;41279;43.546;16.426;2023-04-04T10:22:41;52440.34;;;-146.77;50.82
55410;BME280;41279;43.546;16.426;2023-04-04T10:25:08;52434.34;;;-146.77;51.32
55410;BME280;41279;43.546;16.426;2023-04-04T10:27:34;52426.34;;;-146.77;51.53
55410;BME280;41279;43.546;16.426;2023-04-04T10:29:59;52452.34;;;-146.77;51.49
55410;BME280;41279;43.546;16.426;2023-04-04T10:35:11;52444.34;;;-146.77;51.62
55410;BME280;41279;43.546;16.426;2023-04-04T10:37:43;52446.34;;;-146.77;51.65
55410;BME280;41279;43.546;16.426;2023-04-04T10:40:18;52442.34;;;-146.77;51.45
55410;BME280;41279;43.546;16.426;2023-04-04T10:42:46;52458.38;;;-146.77;51.35
55410;BME280;41279;43.546;16.426;2023-04-04T10:45:15;52454.34;;;-146.77;51.69
55410;BME280;41279;43.546;16.426;2023-04-04T10:47:41;52466.38;;;-146.77;51.22
55410;BME280;41279;43.546;16.426;2023-04-04T10:50:08;52444.34;;;-146.77;51.22
55410;BME280;41279;43.546;16.426;2023-04-04T10:52:38;52440.34;;;-146.77;51.23
55410;BME280;41279;43.546;16.426;2023-04-04T10:55:12;52398.31;;;-146.77;50.83
55410;BME280;41279;43.546;16.426;2023-04-04T10:57:44;52442.34;;;-146.77;50.98
55410;BME280;41279;43.546;16.426;2023-04-04T11:00:14;52454.34;;;-146.77;50.86
55410;BME280;41279;43.546;16.426;2023-04-04T11:05:37;52426.34;;;-146.77;50.63
55410;BME280;41279;43.546;16.426;2023-04-04T11:08:10;52442.34;;;-146.77;50.79
55410;BME280;41279;43.546;16.426;2023-04-04T11:10:42;52442.34;;;-146.77;50.82
55410;BME280;41279;43.546;16.426;2023-04-04T11:13:18;52448.34;;;-146.77;50.82
55410;BME280;41279;43.546;16.426;2023-04-04T11:16:06;52438.34;;;-146.77;50.96
55410;BME280;41279;43.546;16.426;2023-04-04T11:21:05;52418.31;;;-146.77;50.90
55410;BME280;41279;43.546;16.426;2023-04-04T11:26:13;52456.38;;;-146.77;50.91
55410;BME280;41279;43.546;16.426;2023-04-04T11:39:13;52428.34;;;-146.77;49.71
55410;BME280;41279;43.546;16.426;2023-04-04T11:44:18;52434.34;;;-146.77;50.07
55410;BME280;41279;43.546;16.426;2023-04-04T11:46:44;52450.34;;;-146.77;50.22
55410;BME280;41279;43.546;16.426;2023-04-04T11:49:14;52450.34;;;-146.77;49.69
55410;BME280;41279;43.546;16.426;2023-04-04T11:51:40;52434.34;;;-146.77;50.01
55410;BME280;41279;43.546;16.426;2023-04-04T11:54:16;52450.34;;;-146.77;49.99
55410;BME280;41279;43.546;16.426;2023-04-04T11:56:42;52438.34;;;-146.77;49.39
55410;BME280;41279;43.546;16.426;2023-04-04T11:59:16;52450.34;;;-146.77;49.41
55410;BME280;41279;43.546;16.426;2023-04-04T12:01:43;52442.34;;;-146.77;49.76
55410;BME280;41279;43.546;16.426;2023-04-04T12:04:09;52446.34;;;-146.77;49.29
55410;BME280;41279;43.546;16.426;2023-04-04T12:06:36;52446.34;;;-146.77;49.41
55410;BME280;41279;43.546;16.426;2023-04-04T12:09:03;52456.38;;;-146.77;49.07
55410;BME280;41279;43.546;16.426;2023-04-04T12:11:30;52438.34;;;-146.77;48.32
55410;BME280;41279;43.546;16.426;2023-04-04T12:13:58;52452.34;;;-146.77;48.84
55410;BME280;41279;43.546;16.426;2023-04-04T12:16:24;52458.38;;;-146.77;48.94
55410;BME280;41279;43.546;16.426;2023-04-04T12:18:49;52450.34;;;-146.77;48.68
55410;BME280;41279;43.546;16.426;2023-04-04T12:21:15;52454.34;;;-146.77;48.84
55410;BME280;41279;43.546;16.426;2023-04-04T12:23:40;52442.34;;;-146.77;49.06
55410;BME280;41279;43.546;16.426;2023-04-04T12:26:07;52458.38;;;-146.77;48.65
55410;BME280;41279;43.546;16.426;2023-04-04T12:28:34;52458.38;;;-146.77;48.77
55410;BME280;41279;43.546;16.426;2023-04-04T12:31:02;52480.38;;;-146.77;48.83
55410;BME280;41279;43.546;16.426;2023-04-04T12:33:31;52464.38;;;-146.77;48.63
55410;BME280;41279;43.546;16.426;2023-04-04T12:35:58;52428.34;;;-146.77;48.15
55410;BME280;41279;43.546;16.426;2023-04-04T12:38:24;52454.34;;;-146.77;48.03
55410;BME280;41279;43.546;16.426;2023-04-04T12:40:51;52454.34;;;-146.77;48.19
55410;BME280;41279;43.546;16.426;2023-04-04T12:43:17;52452.34;;;-146.77;48.06
55410;BME280;41279;43.546;16.426;2023-04-04T12:45:43;52456.38;;;-146.77;48.49
55410;BME280;41279;43.546;16.426;2023-04-04T12:48:11;52458.38;;;-146.77;48.49
55410;BME280;41279;43.546;16.426;2023-04-04T12:50:48;52430.34;;;-146.77;48.09
55410;BME280;41279;43.546;16.426;2023-04-04T12:53:15;52456.38;;;-146.77;48.11